Time;durP1;ratioP1;P1;durP2;ratioP2;P2;SDS_P1;SDS_P2;PMS_P1;PMS_P2;Temp;Humidity;BMP_temperature;BMP_pressure;BME280_temperature;BME280_humidity;BME280_pressure;Samples;Min_cycle;Max_cycle;Signal;HPM_P1;HPM_P2
2021/04/12 00:02:03;;;;;;;11.90;7.63;;;4.40;99.90;;;;;;5034096;28;20442;-85
2021/04/12 00:04:34;;;;;;;8.13;7.30;;;4.40;99.90;;;;;;5034350;28;20426;-84
2021/04/12 00:07:12;;;;;;;11.00;8.73;;;4.30;99.90;;;;;;5050272;28;20495;-85
2021/04/12 00:10:00;;;;;;;11.37;9.50;;;4.30;99.90;;;;;;5032937;28;20470;-85
2021/04/12 00:12:30;;;;;;;11.20;8.97;;;4.30;99.90;;;;;;5033347;28;20454;-84
2021/04/12 00:15:02;;;;;;;7.90;6.70;;;4.20;99.90;;;;;;5031227;28;20427;-85
2021/04/12 00:17:43;;;;;;;11.30;9.33;;;3.90;99.90;;;;;;5031222;28;20467;-85
2021/04/12 00:20:28;;;;;;;12.00;9.40;;;4.20;99.90;;;;;;5032613;28;20455;-85
2021/04/12 00:23:00;;;;;;;8.33;6.30;;;4.10;99.90;;;;;;5032258;28;20431;-84
2021/04/12 00:25:36;;;;;;;10.03;8.70;;;4.10;99.90;;;;;;5034548;28;20418;-84
2021/04/12 00:28:09;;;;;;;13.33;11.63;;;4.10;99.90;;;;;;5033642;28;21002;-84
2021/04/12 00:30:43;;;;;;;12.03;10.30;;;4.10;99.90;;;;;;5034578;28;20438;-84
2021/04/12 00:33:56;;;;;;;7.10;5.47;;;4.10;99.90;;;;;;5033469;28;20435;-84
2021/04/12 00:36:53;;;;;;;8.33;7.30;;;4.00;99.90;;;;;;5031267;28;20412;-84
2021/04/12 00:39:40;;;;;;;5.13;4.57;;;4.00;99.90;;;;;;5031784;28;20451;-85
2021/04/12 00:42:30;;;;;;;11.67;10.27;;;4.00;99.90;;;;;;5034555;28;20447;-84
2021/04/12 00:45:17;;;;;;;10.97;9.87;;;4.00;99.90;;;;;;5049589;28;20431;-85
2021/04/12 00:47:48;;;;;;;13.87;11.37;;;3.80;99.90;;;;;;5033673;28;20989;-85
2021/04/12 00:50:39;;;;;;;6.67;5.93;;;4.00;99.90;;;;;;5050515;28;20419;-85
2021/04/12 00:53:24;;;;;;;11.47;9.50;;;3.90;99.90;;;;;;5025435;28;20427;-85
2021/04/12 00:55:54;;;;;;;13.23;10.50;;;3.90;99.90;;;;;;5033547;28;20790;-85
2021/04/12 00:58:20;;;;;;;10.30;7.53;;;4.00;99.90;;;;;;5032217;28;20800;-84
2021/04/12 01:01:02;;;;;;;12.17;10.30;;;4.00;99.90;;;;;;5033892;28;20419;-85
2021/04/12 01:04:02;;;;;;;12.63;10.70;;;4.00;99.90;;;;;;5033959;28;20168;-85
2021/04/12 01:06:44;;;;;;;12.77;10.53;;;3.90;99.90;;;;;;5049561;28;20506;-85
2021/04/12 01:09:36;;;;;;;5.43;4.57;;;3.90;99.90;;;;;;5033450;28;20458;-86
2021/04/12 01:12:22;;;;;;;14.17;10.40;;;3.70;99.90;;;;;;5033897;28;20415;-86
2021/04/12 01:15:06;;;;;;;11.63;8.70;;;3.70;99.90;;;;;;5048999;28;20419;-85
2021/04/12 01:17:55;;;;;;;10.70;7.00;;;3.70;99.90;;;;;;5033866;28;20893;-85
2021/04/12 01:21:00;;;;;;;9.60;8.47;;;3.70;99.90;;;;;;5031958;28;20941;-85
2021/04/12 01:23:47;;;;;;;10.43;6.73;;;3.80;99.90;;;;;;5031794;28;20449;-85
2021/04/12 01:26:44;;;;;;;13.50;9.47;;;3.70;99.90;;;;;;5032281;28;20423;-85
2021/04/12 01:29:22;;;;;;;13.63;10.83;;;3.60;99.90;;;;;;5048673;28;20416;-85
2021/04/12 01:31:56;;;;;;;9.00;7.40;;;3.70;99.90;;;;;;5049361;28;20518;-85
2021/04/12 01:35:10;;;;;;;8.47;6.20;;;3.60;99.90;;;;;;5048647;28;20425;-84
2021/04/12 01:37:36;;;;;;;11.73;8.70;;;3.60;99.90;;;;;;5031889;28;20826;-85
2021/04/12 01:40:08;;;;;;;12.50;10.20;;;3.50;99.90;;;;;;5032482;28;20466;-85
2021/04/12 01:42:36;;;;;;;7.37;6.43;;;3.60;99.90;;;;;;5033205;28;20470;-85
2021/04/12 01:45:22;;;;;;;13.03;10.60;;;3.10;99.90;;;;;;5032952;28;20411;-85
2021/04/12 01:48:06;;;;;;;13.17;9.77;;;3.60;99.90;;;;;;5032068;28;20462;-85
2021/04/12 01:50:52;;;;;;;14.13;11.03;;;3.20;99.90;;;;;;5032424;28;21110;-85
2021/04/12 01:53:27;;;;;;;10.57;8.23;;;3.20;99.90;;;;;;5046813;28;20950;-85
2021/04/12 01:56:16;;;;;;;19.33;10.97;;;3.40;99.90;;;;;;5033266;28;20446;-84
2021/04/12 01:58:51;;;;;;;13.83;11.60;;;3.50;99.90;;;;;;5029641;28;20490;-85
2021/04/12 02:01:46;;;;;;;9.30;7.33;;;3.10;99.90;;;;;;5033236;28;20446;-85
2021/04/12 02:04:29;;;;;;;14.47;11.13;;;3.60;99.90;;;;;;5032367;28;20507;-86
2021/04/12 02:07:10;;;;;;;11.73;9.33;;;3.50;99.90;;;;;;5031228;28;20424;-84
2021/04/12 02:10:11;;;;;;;6.93;4.20;;;2.90;99.90;;;;;;5048024;28;20467;-84
2021/04/12 02:12:50;;;;;;;10.23;6.70;;;3.40;99.90;;;;;;5031673;28;20509;-85
2021/04/12 02:16:06;;;;;;;10.67;6.87;;;3.40;99.90;;;;;;5048143;28;20427;-84
2021/04/12 02:19:08;;;;;;;9.17;5.60;;;3.50;99.90;;;;;;5029796;28;20989;-84
2021/04/12 02:22:11;;;;;;;10.17;7.63;;;3.40;99.90;;;;;;5031441;28;20481;-85
2021/04/12 02:24:51;;;;;;;12.97;10.00;;;3.40;99.90;;;;;;5032443;28;20443;-85
2021/04/12 02:27:42;;;;;;;9.80;7.57;;;3.30;99.90;;;;;;5048043;28;20419;-84
2021/04/12 02:30:41;;;;;;;5.37;3.90;;;3.30;99.90;;;;;;5030597;28;20427;-85
2021/04/12 02:33:43;;;;;;;9.70;7.97;;;3.30;99.90;;;;;;5031308;28;20480;-84
2021/04/12 02:36:13;;;;;;;12.03;8.10;;;3.30;99.90;;;;;;5031327;28;20485;-83
2021/04/12 02:38:57;;;;;;;12.63;9.40;;;3.30;99.90;;;;;;5027985;28;20486;-85
2021/04/12 02:42:05;;;;;;;14.27;11.63;;;3.00;99.90;;;;;;5031955;28;20451;-84
2021/04/12 02:44:37;;;;;;;16.00;11.57;;;3.30;99.90;;;;;;5030981;28;20427;-83
2021/04/12 02:47:37;;;;;;;14.67;11.33;;;3.00;99.90;;;;;;5047474;28;20454;-83
2021/04/12 02:50:05;;;;;;;13.97;9.77;;;3.40;99.90;;;;;;5032322;28;20506;-84
2021/04/12 02:52:54;;;;;;;10.43;7.20;;;3.30;99.90;;;;;;5047390;28;20435;-84
2021/04/12 02:55:38;;;;;;;11.20;9.07;;;3.10;99.90;;;;;;5047215;28;20438;-85
2021/04/12 02:58:36;;;;;;;12.87;9.13;;;3.50;99.90;;;;;;5030966;28;20888;-84
2021/04/12 03:01:14;;;;;;;13.00;9.90;;;3.40;99.90;;;;;;5032338;28;20424;-84
2021/04/12 03:04:08;;;;;;;13.17;10.77;;;3.40;99.90;;;;;;5030882;28;20842;-84
2021/04/12 03:07:01;;;;;;;12.97;10.17;;;3.30;99.90;;;;;;5048224;28;20567;-83
2021/04/12 03:10:05;;;;;;;19.70;12.60;;;3.10;99.90;;;;;;5030786;28;20560;-84
2021/04/12 03:12:56;;;;;;;15.83;12.67;;;3.60;99.90;;;;;;5047033;28;20937;-84
2021/04/12 03:15:42;;;;;;;16.87;12.87;;;3.30;99.90;;;;;;5047538;28;20838;-83
2021/04/12 03:18:43;;;;;;;14.97;11.27;;;3.50;99.90;;;;;;5035241;28;20815;-84
2021/04/12 03:21:24;;;;;;;15.60;11.10;;;3.30;99.90;;;;;;5034652;28;20427;-84
2021/04/12 03:24:08;;;;;;;16.47;11.60;;;3.40;99.90;;;;;;5036792;28;20477;-83
2021/04/12 03:27:05;;;;;;;14.00;11.37;;;3.40;99.90;;;;;;5052141;28;20423;-85
2021/04/12 03:30:01;;;;;;;15.47;11.30;;;3.60;99.90;;;;;;5036746;28;20432;-84
2021/04/12 03:32:47;;;;;;;13.33;10.77;;;3.20;99.90;;;;;;5051646;28;20920;-83
2021/04/12 03:35:22;;;;;;;12.40;9.00;;;3.30;99.90;;;;;;5030900;28;20442;-85
2021/04/12 03:38:28;;;;;;;9.03;6.87;;;3.30;99.90;;;;;;5036587;28;20471;-82
2021/04/12 03:41:22;;;;;;;14.20;10.87;;;3.30;99.90;;;;;;5004295;28;20431;-83
2021/04/12 03:44:10;;;;;;;9.27;7.10;;;3.20;99.90;;;;;;5016258;28;20424;-84
2021/04/12 03:46:54;;;;;;;8.67;6.63;;;3.10;99.90;;;;;;5031011;28;20943;-84
2021/04/12 03:50:03;;;;;;;10.80;7.73;;;3.00;99.90;;;;;;5014636;28;20799;-85
2021/04/12 03:53:07;;;;;;;9.57;7.57;;;3.10;99.90;;;;;;5015808;28;20944;-84
2021/04/12 03:55:45;;;;;;;6.13;4.47;;;3.10;99.90;;;;;;5015990;28;20780;-83
2021/04/12 03:58:41;;;;;;;8.97;7.30;;;2.90;99.90;;;;;;5015112;28;20529;-84
2021/04/12 04:01:35;;;;;;;8.40;7.57;;;2.80;99.90;;;;;;5015377;28;20419;-78
2021/04/12 04:04:15;;;;;;;6.07;5.47;;;3.10;99.90;;;;;;5016047;28;20935;-84
2021/04/12 04:06:59;;;;;;;9.90;7.57;;;2.80;99.90;;;;;;5014427;28;20420;-85
2021/04/12 04:09:51;;;;;;;8.20;6.80;;;2.90;99.90;;;;;;5014044;28;20498;-84
2021/04/12 04:12:39;;;;;;;8.80;7.23;;;2.90;99.90;;;;;;5016165;28;20416;-84
2021/04/12 04:15:27;;;;;;;10.20;6.57;;;3.00;99.90;;;;;;5015445;28;20500;-85
2021/04/12 04:18:15;;;;;;;8.80;7.30;;;3.10;99.90;;;;;;5030071;28;20864;-72
2021/04/12 04:20:49;;;;;;;9.97;7.93;;;2.90;99.90;;;;;;5014253;28;20428;-86
2021/04/12 04:23:27;;;;;;;9.27;7.17;;;2.70;99.90;;;;;;5030686;28;20489;-83
2021/04/12 04:25:55;;;;;;;9.50;6.80;;;2.80;99.90;;;;;;5014293;28;20435;-82
2021/04/12 04:28:30;;;;;;;8.87;7.83;;;2.90;99.90;;;;;;5029547;28;20538;-84
2021/04/12 04:31:26;;;;;;;11.40;7.87;;;2.90;99.90;;;;;;5030779;28;20830;-84
2021/04/12 04:34:14;;;;;;;8.70;7.80;;;2.70;99.90;;;;;;5013775;28;20429;-84
2021/04/12 04:36:58;;;;;;;9.70;8.00;;;2.60;99.90;;;;;;5014711;28;20412;-84
2021/04/12 04:40:01;;;;;;;9.63;8.00;;;2.70;99.90;;;;;;5026611;28;20517;-84
2021/04/12 04:42:41;;;;;;;15.10;11.60;;;2.70;99.90;;;;;;5036975;28;20575;-81
2021/04/12 04:45:26;;;;;;;15.83;12.13;;;2.80;99.90;;;;;;5057860;28;20558;-83
2021/04/12 04:48:03;;;;;;;11.83;10.40;;;2.70;99.90;;;;;;5037402;28;20407;-84
2021/04/12 04:51:00;;;;;;;19.07;15.60;;;2.50;99.90;;;;;;5051984;28;20481;-87
2021/04/12 04:53:38;;;;;;;17.00;11.23;;;2.80;99.90;;;;;;5051445;28;20446;-84
2021/04/12 04:56:41;;;;;;;14.20;12.27;;;2.50;99.90;;;;;;5034271;28;20810;-84
2021/04/12 04:59:40;;;;;;;16.20;12.87;;;2.60;99.90;;;;;;5015288;28;20531;-85
2021/04/12 05:02:27;;;;;;;13.23;9.20;;;2.90;99.90;;;;;;5014855;28;20931;-86
2021/04/12 05:05:21;;;;;;;16.63;10.93;;;2.80;99.90;;;;;;5024365;28;20435;-83
2021/04/12 05:08:25;;;;;;;13.57;10.43;;;2.60;99.90;;;;;;5028446;28;20418;-84
2021/04/12 05:11:14;;;;;;;14.10;10.40;;;2.70;99.90;;;;;;5027906;28;20472;-81
2021/04/12 05:13:59;;;;;;;17.40;12.97;;;2.80;99.90;;;;;;5037631;28;20470;-83
2021/04/12 05:16:57;;;;;;;14.50;10.20;;;2.70;99.90;;;;;;5033038;28;20415;-84
2021/04/12 05:19:30;;;;;;;13.77;10.50;;;2.80;99.90;;;;;;5031454;28;20542;-84
2021/04/12 05:22:03;;;;;;;14.80;10.30;;;2.90;99.90;;;;;;5046357;28;20477;-83
2021/04/12 05:24:47;;;;;;;19.97;14.00;;;2.50;99.90;;;;;;5032093;28;20530;-83
2021/04/12 05:27:41;;;;;;;14.50;11.00;;;2.80;99.90;;;;;;5043773;28;20436;-85
2021/04/12 05:30:22;;;;;;;18.37;13.33;;;2.80;99.90;;;;;;4960450;28;21037;-83
2021/04/12 05:33:06;;;;;;;15.53;12.30;;;2.80;99.90;;;;;;5014911;28;20428;-80
2021/04/12 05:36:12;;;;;;;17.70;13.90;;;3.10;99.90;;;;;;5011907;28;20530;-84
2021/04/12 05:38:59;;;;;;;18.43;13.80;;;3.00;99.90;;;;;;5019158;28;20486;-82
2021/04/12 05:41:57;;;;;;;17.10;13.07;;;3.00;99.90;;;;;;5048319;28;20988;-84
2021/04/12 05:44:52;;;;;;;15.23;12.40;;;3.10;99.90;;;;;;5013943;28;20423;-84
2021/04/12 05:47:55;;;;;;;17.37;12.60;;;2.70;99.90;;;;;;5015556;28;20602;-83
2021/04/12 05:50:45;;;;;;;18.00;13.70;;;3.00;99.90;;;;;;5016487;28;20480;-86
2021/04/12 05:53:41;;;;;;;19.50;13.83;;;3.00;99.90;;;;;;5011792;28;20932;-85
2021/04/12 05:56:31;;;;;;;15.50;13.83;;;3.10;99.90;;;;;;5012224;28;20433;-84
2021/04/12 05:59:29;;;;;;;13.67;9.80;;;3.10;99.90;;;;;;5020212;28;20479;-82
2021/04/12 06:02:20;;;;;;;16.73;12.27;;;3.00;99.90;;;;;;5030833;28;20418;-84
2021/04/12 06:05:13;;;;;;;15.63;11.47;;;3.00;99.90;;;;;;5032937;28;20855;-84
2021/04/12 06:08:07;;;;;;;17.80;14.17;;;3.00;99.90;;;;;;5030188;28;20432;-82
2021/04/12 06:11:24;;;;;;;17.67;14.40;;;3.20;99.90;;;;;;5031332;28;20467;-82
2021/04/12 06:14:29;;;;;;;20.37;15.47;;;3.10;99.90;;;;;;5009893;28;20963;-83
2021/04/12 06:17:13;;;;;;;18.10;13.70;;;3.10;99.90;;;;;;4993553;28;20471;-82
2021/04/12 06:19:44;;;;;;;19.73;15.23;;;3.10;99.90;;;;;;5029193;28;20473;-83
2021/04/12 06:22:28;;;;;;;20.33;14.40;;;3.20;99.90;;;;;;5035264;28;20415;-84
2021/04/12 06:25:09;;;;;;;17.17;12.37;;;3.30;99.90;;;;;;5030978;28;20898;-81
2021/04/12 06:27:39;;;;;;;13.80;11.83;;;3.10;99.90;;;;;;5045024;28;20438;-83
2021/04/12 06:30:22;;;;;;;15.13;13.53;;;3.40;99.90;;;;;;5040878;28;20766;-84
2021/04/12 06:33:00;;;;;;;17.10;12.73;;;3.40;99.90;;;;;;5019796;28;20431;-84
2021/04/12 06:35:45;;;;;;;13.20;10.90;;;3.10;99.90;;;;;;5044053;28;20430;-83
2021/04/12 06:38:28;;;;;;;16.43;13.27;;;3.20;99.90;;;;;;5041171;28;20471;-82
2021/04/12 06:41:18;;;;;;;19.30;14.60;;;3.10;99.90;;;;;;5030709;28;20431;-82
2021/04/12 06:44:08;;;;;;;14.47;12.97;;;3.20;99.90;;;;;;5031644;28;21173;-83
2021/04/12 06:47:15;;;;;;;14.93;13.03;;;3.20;99.90;;;;;;5022953;28;20962;-84
2021/04/12 06:49:47;;;;;;;16.07;13.37;;;3.10;99.90;;;;;;5030142;28;20471;-83
2021/04/12 06:52:42;;;;;;;14.60;11.00;;;3.20;99.90;;;;;;5032458;28;20458;-83
2021/04/12 06:55:19;;;;;;;18.37;13.47;;;3.20;99.90;;;;;;5029591;28;20432;-83
2021/04/12 06:58:23;;;;;;;27.47;20.27;;;3.30;99.90;;;;;;5034033;28;20540;-83
2021/04/12 07:01:26;;;;;;;32.53;21.00;;;3.30;99.90;;;;;;5052513;28;20519;-84
2021/04/12 07:04:16;;;;;;;30.97;21.30;;;3.20;99.90;;;;;;5050429;28;20445;-84
2021/04/12 07:07:10;;;;;;;36.40;23.47;;;3.20;99.90;;;;;;5050746;28;20430;-83
2021/04/12 07:09:42;;;;;;;31.60;19.83;;;3.50;99.90;;;;;;5032660;28;20493;-81
2021/04/12 07:12:38;;;;;;;27.40;18.27;;;3.50;99.90;;;;;;5050019;28;20470;-84
2021/04/12 07:15:19;;;;;;;29.83;20.60;;;3.40;99.90;;;;;;5049615;28;20431;-84
2021/04/12 07:18:25;;;;;;;33.17;23.33;;;3.40;99.90;;;;;;5048856;28;20516;-84
2021/04/12 07:21:28;;;;;;;32.40;23.93;;;3.30;99.90;;;;;;5050369;28;20757;-83
2021/04/12 07:24:09;;;;;;;26.83;19.00;;;3.50;99.90;;;;;;5034427;28;20434;-83
2021/04/12 07:26:46;;;;;;;16.83;15.03;;;3.70;99.90;;;;;;5034150;28;20407;-75
2021/04/12 07:29:30;;;;;;;22.20;17.60;;;3.60;99.90;;;;;;5032907;28;20434;-83
2021/04/12 07:32:33;;;;;;;21.00;16.20;;;3.30;99.90;;;;;;5034999;28;20530;-82
2021/04/12 07:35:16;;;;;;;19.47;15.30;;;3.70;99.90;;;;;;5033530;28;20444;-83
2021/04/12 07:38:13;;;;;;;19.10;16.37;;;3.70;99.90;;;;;;5035302;28;20459;-83
2021/04/12 07:40:59;;;;;;;25.53;19.20;;;3.80;99.90;;;;;;5034496;28;20439;-83
2021/04/12 07:43:46;;;;;;;26.17;17.83;;;3.90;99.90;;;;;;5049314;28;20427;-84
2021/04/12 07:46:22;;;;;;;26.43;20.70;;;3.90;99.90;;;;;;5032409;28;20470;-83
2021/04/12 07:49:32;;;;;;;20.90;17.87;;;4.10;99.90;;;;;;5049945;28;20429;-84
2021/04/12 07:52:38;;;;;;;21.00;16.53;;;4.00;99.90;;;;;;5032197;28;20994;-84
2021/04/12 07:55:21;;;;;;;21.47;15.80;;;4.10;99.90;;;;;;5047854;28;20435;-75
2021/04/12 07:58:00;;;;;;;19.53;15.70;;;4.30;99.90;;;;;;5031955;28;20479;-84
2021/04/12 08:00:32;;;;;;;20.97;16.33;;;4.10;99.90;;;;;;5033727;28;20460;-84
2021/04/12 08:03:16;;;;;;;17.47;11.10;;;4.20;99.90;;;;;;5033120;28;20439;-82
2021/04/12 08:06:23;;;;;;;15.97;13.17;;;4.10;99.90;;;;;;5047239;28;20467;-84
2021/04/12 08:09:17;;;;;;;16.70;12.33;;;4.20;99.90;;;;;;5046794;28;20473;-83
2021/04/12 08:12:20;;;;;;;19.77;14.77;;;4.30;99.90;;;;;;5034185;28;20442;-83
2021/04/12 08:15:14;;;;;;;21.40;15.90;;;4.40;99.90;;;;;;5030352;28;20439;-84
2021/04/12 08:18:10;;;;;;;19.67;14.80;;;4.50;99.90;;;;;;5031164;28;20858;-84
2021/04/12 08:21:09;;;;;;;15.77;12.70;;;4.70;99.90;;;;;;5031134;28;20431;-84
2021/04/12 08:23:44;;;;;;;17.07;13.70;;;4.60;99.90;;;;;;5045046;28;20438;-82
2021/04/12 08:26:52;;;;;;;15.07;13.57;;;4.80;99.90;;;;;;5048447;28;20435;-81
2021/04/12 08:29:52;;;;;;;20.97;12.63;;;4.80;99.90;;;;;;5031716;28;20454;-83
2021/04/12 08:32:39;;;;;;;14.60;13.00;;;4.80;99.90;;;;;;5028433;28;20420;-84
2021/04/12 08:35:26;;;;;;;13.17;11.50;;;5.00;99.90;;;;;;5029696;28;20433;-84
2021/04/12 08:38:13;;;;;;;14.93;12.37;;;4.80;99.90;;;;;;5024981;28;20471;-83
2021/04/12 08:40:55;;;;;;;13.30;11.97;;;4.90;99.90;;;;;;5029534;28;20442;-83
2021/04/12 08:43:39;;;;;;;10.00;9.00;;;5.00;99.90;;;;;;5031111;28;20522;-83
2021/04/12 08:46:52;;;;;;;16.90;11.73;;;5.10;99.90;;;;;;5029483;28;20443;-82
2021/04/12 08:49:45;;;;;;;14.03;12.07;;;5.20;99.90;;;;;;5044237;28;20435;-82
2021/04/12 08:52:49;;;;;;;17.27;11.70;;;5.30;99.90;;;;;;5029831;28;20467;-83
2021/04/12 08:55:36;;;;;;;12.30;11.03;;;5.40;99.90;;;;;;5031944;28;20419;-84
2021/04/12 08:58:20;;;;;;;9.83;8.83;;;5.40;99.90;;;;;;5047424;28;20479;-83
2021/04/12 09:01:23;;;;;;;10.60;9.60;;;5.40;99.90;;;;;;5029685;28;20442;-84
2021/04/12 09:04:29;;;;;;;9.43;8.53;;;5.50;99.90;;;;;;5028160;28;20431;-83
2021/04/12 09:07:13;;;;;;;9.20;8.40;;;5.50;99.90;;;;;;5031495;28;20457;-83
2021/04/12 09:09:57;;;;;;;8.20;7.40;;;5.40;99.90;;;;;;5031396;28;20521;-84
2021/04/12 09:12:28;;;;;;;10.23;8.93;;;5.80;99.90;;;;;;5032106;28;20447;-84
2021/04/12 09:15:25;;;;;;;8.23;7.50;;;6.30;99.90;;;;;;5030344;28;20427;-84
2021/04/12 09:17:56;;;;;;;8.80;8.00;;;6.70;99.90;;;;;;5043383;28;20508;-83
2021/04/12 09:20:43;;;;;;;8.57;6.20;;;6.70;99.90;;;;;;5044372;28;20451;-83
2021/04/12 09:23:41;;;;;;;7.37;6.77;;;6.60;99.90;;;;;;5032091;28;20428;-83
2021/04/12 09:26:31;;;;;;;9.70;7.83;;;6.70;99.90;;;;;;5015157;28;20435;-86
2021/04/12 09:29:42;;;;;;;7.67;6.93;;;7.00;99.90;;;;;;5045689;28;20443;-81
2021/04/12 09:32:45;;;;;;;7.37;6.60;;;7.10;99.90;;;;;;5020538;28;20432;-83
2021/04/12 09:35:35;;;;;;;6.47;5.87;;;7.40;99.90;;;;;;5047103;28;20433;-84
2021/04/12 09:38:19;;;;;;;9.70;5.70;;;7.50;99.90;;;;;;5012501;28;20507;-85
2021/04/12 09:41:07;;;;;;;4.97;4.57;;;7.40;99.90;;;;;;5011732;28;20420;-85
2021/04/12 09:43:57;;;;;;;8.03;6.93;;;6.90;99.90;;;;;;5032591;28;20611;-83
2021/04/12 09:46:57;;;;;;;7.33;6.73;;;7.20;99.90;;;;;;5030297;28;20423;-83
2021/04/12 09:50:00;;;;;;;6.10;5.50;;;7.10;99.90;;;;;;5048772;28;20443;-85
2021/04/12 09:52:41;;;;;;;6.37;5.77;;;7.30;99.90;;;;;;5029746;28;20985;-84
2021/04/12 09:55:25;;;;;;;5.40;4.70;;;7.20;99.90;;;;;;5032172;28;20423;-84
2021/04/12 09:58:28;;;;;;;16.70;6.67;;;7.00;99.90;;;;;;5030430;28;20589;-84
2021/04/12 10:01:13;;;;;;;8.77;5.03;;;7.70;99.90;;;;;;5025348;28;20431;-84
2021/04/12 10:03:41;;;;;;;4.80;3.70;;;8.40;99.90;;;;;;5021704;28;20419;-86
2021/04/12 10:06:26;;;;;;;8.73;4.67;;;8.40;99.90;;;;;;5045051;28;20431;-86
2021/04/12 10:09:10;;;;;;;16.30;6.80;;;8.40;99.90;;;;;;5028856;28;20469;-85
2021/04/12 10:12:01;;;;;;;4.77;4.20;;;8.50;99.90;;;;;;5029442;28;20431;-83
2021/04/12 10:14:31;;;;;;;13.07;6.73;;;8.30;99.90;;;;;;5029299;28;21064;-84
2021/04/12 10:17:02;;;;;;;5.47;4.70;;;8.30;99.90;;;;;;5045440;28;20423;-84
2021/04/12 10:19:56;;;;;;;16.07;5.27;;;8.40;99.90;;;;;;5045448;28;20551;-83
2021/04/12 10:22:45;;;;;;;8.10;3.60;;;7.60;99.90;;;;;;5030415;28;20434;-83
2021/04/12 10:25:16;;;;;;;4.00;2.80;;;7.20;99.90;;;;;;5046897;28;20958;-83
2021/04/12 10:27:45;;;;;;;3.77;2.97;;;7.20;99.90;;;;;;5032856;28;20453;-85
2021/04/12 10:30:28;;;;;;;4.40;2.37;;;7.30;99.90;;;;;;5049502;28;20434;-84
2021/04/12 10:33:11;;;;;;;7.70;3.43;;;6.90;92.70;;;;;;5032456;28;20418;-84
2021/04/12 10:35:48;;;;;;;22.60;6.00;;;7.30;95.30;;;;;;5031230;28;20521;-83
2021/04/12 10:38:31;;;;;;;6.50;5.67;;;7.70;99.00;;;;;;5028255;28;21004;-80
2021/04/12 10:41:12;;;;;;;4.23;3.60;;;8.20;85.90;;;;;;5030740;28;20795;-84
2021/04/12 10:43:47;;;;;;;3.70;3.40;;;8.30;65.90;;;;;;5047525;28;20472;-82
2021/04/12 10:46:27;;;;;;;5.43;3.83;;;8.30;35.50;;;;;;5030174;28;20453;-82
2021/04/12 10:49:11;;;;;;;9.63;4.70;;;8.30;24.10;;;;;;5043465;28;20419;-81
2021/04/12 10:51:52;;;;;;;9.10;5.03;;;8.10;29.60;;;;;;5021053;28;20419;-78
2021/04/12 10:54:53;;;;;;;8.63;3.80;;;8.00;27.10;;;;;;5030286;28;20447;-84
2021/04/12 10:57:25;;;;;;;2.30;2.00;;;8.30;14.10;;;;;;5045766;28;20942;-84
2021/04/12 11:00:12;;;;;;;3.50;1.50;;;9.10;1.00;;;;;;5043624;28;20489;-83
2021/04/12 11:03:02;;;;;;;2.63;2.23;;;9.60;1.00;;;;;;5029745;28;21032;-83
2021/04/12 11:05:30;;;;;;;2.37;2.20;;;9.50;11.10;;;;;;5026670;28;20442;-84
2021/04/12 11:08:28;;;;;;;3.93;2.40;;;9.30;1.00;;;;;;5032003;28;20438;-84
2021/04/12 11:11:08;;;;;;;2.93;2.67;;;9.90;99.90;;;;;;5015329;28;20475;-80
2021/04/12 11:13:59;;;;;;;9.70;3.50;;;10.90;1.00;;;;;;5027308;28;20449;-83
2021/04/12 11:16:44;;;;;;;8.63;2.97;;;10.70;99.90;;;;;;5030035;28;20767;-83
2021/04/12 11:19:17;;;;;;;4.03;2.53;;;11.10;1.00;;;;;;5046847;28;20479;-83
2021/04/12 11:22:01;;;;;;;2.73;2.53;;;10.80;99.90;;;;;;5028593;28;20418;-83
2021/04/12 11:24:37;;;;;;;3.40;2.40;;;11.60;99.90;;;;;;5030082;28;20439;-84
2021/04/12 11:27:28;;;;;;;6.20;2.90;;;10.90;99.90;;;;;;5030974;28;20514;-84
2021/04/12 11:30:03;;;;;;;6.93;2.30;;;11.20;99.90;;;;;;5039460;28;20446;-83
2021/04/12 11:32:57;;;;;;;2.70;2.60;;;11.60;99.90;;;;;;5032418;28;20649;-84
2021/04/12 11:35:39;;;;;;;2.07;1.83;;;11.40;99.90;;;;;;5034382;28;20407;-85
2021/04/12 11:38:10;;;;;;;3.10;2.80;;;10.60;99.90;;;;;;5031795;28;20680;-85
2021/04/12 11:40:58;;;;;;;1.50;1.40;;;9.60;99.90;;;;;;5028773;28;20426;-84
2021/04/12 11:43:48;;;;;;;1.50;1.40;;;9.60;99.90;;;;;;5029895;28;20431;-84
2021/04/12 11:46:38;;;;;;;3.63;2.10;;;9.60;44.00;;;;;;5034201;28;20454;-84
2021/04/12 11:49:26;;;;;;;2.90;1.97;;;9.90;99.90;;;;;;5033566;28;20431;-85
2021/04/12 11:52:14;;;;;;;2.43;2.23;;;9.50;99.90;;;;;;5031050;28;20534;-83
2021/04/12 11:54:59;;;;;;;2.60;2.40;;;9.20;99.90;;;;;;5015311;28;20546;-82
2021/04/12 11:57:43;;;;;;;4.70;2.67;;;8.70;99.90;;;;;;5033681;28;20426;-80
2021/04/12 12:00:25;;;;;;;4.33;2.67;;;8.80;1.00;;;;;;5034401;28;20474;-83
2021/04/12 12:03:18;;;;;;;2.00;1.90;;;9.10;99.90;;;;;;5046037;28;20477;-82
2021/04/12 12:06:08;;;;;;;2.63;2.03;;;9.00;99.90;;;;;;5028688;28;20431;-81
2021/04/12 12:08:55;;;;;;;3.20;2.20;;;9.30;1.00;;;;;;5046374;28;20890;-85
2021/04/12 12:11:34;;;;;;;2.20;2.00;;;9.00;99.90;;;;;;5047543;28;20442;-83
2021/04/12 12:14:18;;;;;;;2.70;2.00;;;8.50;99.90;;;;;;5029712;28;20462;-81
2021/04/12 12:16:44;;;;;;;3.27;2.27;;;8.70;1.00;;;;;;5045441;28;20473;-84
2021/04/12 12:19:34;;;;;;;2.17;1.50;;;8.80;99.90;;;;;;5030476;28;20529;-83
2021/04/12 12:22:05;;;;;;;2.00;1.73;;;9.50;99.90;;;;;;5043534;28;20471;-83
2021/04/12 12:25:07;;;;;;;2.90;2.00;;;9.40;94.50;;;;;;5029011;28;20478;-82
2021/04/12 12:28:14;;;;;;;4.33;2.30;;;10.10;99.90;;;;;;5035717;28;20442;-83
2021/04/12 12:30:54;;;;;;;3.80;2.30;;;10.60;17.70;;;;;;5035976;28;20410;-83
2021/04/12 12:33:28;;;;;;;1.60;1.50;;;10.10;98.90;;;;;;5036949;28;20434;-82
2021/04/12 12:36:14;;;;;;;2.33;2.10;;;10.00;99.90;;;;;;5062300;28;20413;-78
2021/04/12 12:39:06;;;;;;;2.87;2.30;;;9.60;99.90;;;;;;5032600;28;21040;-83
2021/04/12 12:41:41;;;;;;;2.73;1.97;;;9.50;99.90;;;;;;5031829;28;20439;-83
2021/04/12 12:44:10;;;;;;;2.37;2.17;;;9.60;99.90;;;;;;5029451;28;20431;-82
2021/04/12 12:46:38;;;;;;;3.07;2.53;;;9.60;99.90;;;;;;5029324;28;20435;-84
2021/04/12 12:49:29;;;;;;;5.07;2.20;;;9.00;99.90;;;;;;5031024;28;20440;-82
2021/04/12 12:52:02;;;;;;;2.53;2.33;;;9.10;99.90;;;;;;5032889;28;20478;-83
2021/04/12 12:54:38;;;;;;;2.63;2.10;;;9.40;99.90;;;;;;5037570;28;20438;-82
2021/04/12 12:57:26;;;;;;;2.07;1.90;;;9.40;99.90;;;;;;5009258;28;20450;-82
2021/04/12 12:59:57;;;;;;;4.00;1.87;;;9.50;99.90;;;;;;5028911;28;20443;-83
2021/04/12 13:02:25;;;;;;;3.40;3.00;;;9.60;99.90;;;;;;5031592;28;20435;-83
2021/04/12 13:05:18;;;;;;;2.17;1.97;;;10.00;99.90;;;;;;5047296;28;20439;-82
2021/04/12 13:07:45;;;;;;;4.20;2.30;;;10.30;15.00;;;;;;5031786;28;20439;-84
2021/04/12 13:10:32;;;;;;;1.80;1.70;;;10.20;1.00;;;;;;5031366;28;20915;-83
2021/04/12 13:12:59;;;;;;;2.50;1.77;;;10.50;1.00;;;;;;5030894;28;20443;-80
2021/04/12 13:15:37;;;;;;;2.97;2.63;;;10.20;1.00;;;;;;5031249;28;20919;-82
2021/04/12 13:18:24;;;;;;;2.10;1.90;;;10.40;1.00;;;;;;5048591;28;20458;-79
2021/04/12 13:20:53;;;;;;;4.43;1.87;;;10.50;1.00;;;;;;5031176;28;20470;-82
2021/04/12 13:23:43;;;;;;;4.50;2.20;;;9.80;21.00;;;;;;5030662;28;20423;-81
2021/04/12 13:26:37;;;;;;;3.03;2.77;;;8.80;99.90;;;;;;5029663;28;20443;-83
2021/04/12 13:29:13;;;;;;;2.60;2.30;;;8.90;99.90;;;;;;5031479;28;20518;-83
2021/04/12 13:31:46;;;;;;;2.87;2.63;;;9.10;99.90;;;;;;5029288;28;20911;-82
2021/04/12 13:34:23;;;;;;;2.63;2.23;;;9.00;99.90;;;;;;5029929;28;20435;-82
2021/04/12 13:37:00;;;;;;;7.60;3.50;;;9.00;99.90;;;;;;5031418;28;20423;-83
2021/04/12 13:40:03;;;;;;;2.90;2.57;;;9.00;99.90;;;;;;5030905;28;20824;-83
2021/04/12 13:42:35;;;;;;;2.60;2.40;;;9.20;99.90;;;;;;5045382;28;20427;-84
2021/04/12 13:45:08;;;;;;;2.50;2.27;;;9.10;99.90;;;;;;5030488;28;20450;-83
2021/04/12 13:47:47;;;;;;;4.37;3.97;;;9.10;99.90;;;;;;5027369;28;20431;-83
2021/04/12 13:50:34;;;;;;;3.43;3.07;;;9.10;99.90;;;;;;5031687;28;21064;-83
2021/04/12 13:53:07;;;;;;;2.90;2.70;;;9.20;99.90;;;;;;5032458;28;20489;-82
2021/04/12 13:55:43;;;;;;;2.00;1.90;;;9.20;99.90;;;;;;5030000;28;20431;-82
2021/04/12 13:58:10;;;;;;;2.37;2.20;;;8.80;99.90;;;;;;5030131;28;20474;-83
2021/04/12 14:00:43;;;;;;;2.07;1.90;;;8.50;98.50;;;;;;5030398;28;20427;-83
2021/04/12 14:03:25;;;;;;;3.33;2.50;;;8.50;99.90;;;;;;5027688;28;20428;-81
2021/04/12 14:06:03;;;;;;;3.13;2.80;;;8.90;99.90;;;;;;5023653;28;20773;-83
2021/04/12 14:08:38;;;;;;;2.50;2.30;;;9.30;99.90;;;;;;5047345;28;20937;-83
2021/04/12 14:11:27;;;;;;;7.00;3.40;;;9.40;99.50;;;;;;5046979;28;20471;-83
2021/04/12 14:14:05;;;;;;;2.23;2.03;;;9.40;99.90;;;;;;5048451;28;20464;-83
2021/04/12 14:16:37;;;;;;;6.40;4.10;;;9.10;47.50;;;;;;5031069;28;20799;-83
2021/04/12 14:19:20;;;;;;;2.70;2.50;;;9.10;72.10;;;;;;5047853;28;20479;-82
2021/04/12 14:21:48;;;;;;;3.17;2.73;;;9.00;99.90;;;;;;5049461;28;20454;-83
2021/04/12 14:24:13;;;;;;;6.43;4.07;;;9.00;99.90;;;;;;5046934;28;20431;-82
2021/04/12 14:26:39;;;;;;;3.00;2.80;;;9.00;99.90;;;;;;5030417;28;20419;-81